sensor_id;sensor_type;location;lat;lon;timestamp;temperature;humidity
45066;DHT22;30830;53.704;10.004;2024-01-15T00:02:18;0.70;99.90
45066;DHT22;30830;53.704;10.004;2024-01-15T00:04:44;0.60;99.90
45066;DHT22;30830;53.704;10.004;2024-01-15T00:07:09;0.60;99.90
45066;DHT22;30830;53.704;10.004;2024-01-15T00:09:35;0.60;99.90
45066;DHT22;30830;53.704;10.004;2024-01-15T00:12:01;0.70;99.90
45066;DHT22;30830;53.704;10.004;2024-01-15T00:14:27;0.70;99.90
45066;DHT22;30830;53.704;10.004;2024-01-15T00:16:53;0.70;99.90
45066;DHT22;30830;53.704;10.004;2024-01-15T00:19:21;0.70;99.90
45066;DHT22;30830;53.704;10.004;2024-01-15T00:21:47;0.70;99.90
45066;DHT22;30830;53.704;10.004;2024-01-15T00:24:12;0.70;99.90
45066;DHT22;30830;53.704;10.004;2024-01-15T00:26:38;0.80;99.90
45066;DHT22;30830;53.704;10.004;2024-01-15T00:29:03;0.80;99.90
45066;DHT22;30830;53.704;10.004;2024-01-15T00:31:29;0.80;99.90
45066;DHT22;30830;53.704;10.004;2024-01-15T00:33:56;0.80;99.90
45066;DHT22;30830;53.704;10.004;2024-01-15T00:36:21;0.80;99.90
45066;DHT22;30830;53.704;10.004;2024-01-15T00:38:47;0.80;99.90
45066;DHT22;30830;53.704;10.004;2024-01-15T00:41:13;0.80;99.90
45066;DHT22;30830;53.704;10.004;2024-01-15T00:43:39;0.80;99.90
45066;DHT22;30830;53.704;10.004;2024-01-15T00:46:05;0.80;99.90
45066;DHT22;30830;53.704;10.004;2024-01-15T00:48:31;0.80;99.90
45066;DHT22;30830;53.704;10.004;2024-01-15T00:50:56;0.80;99.90
45066;DHT22;30830;53.704;10.004;2024-01-15T00:53:22;0.80;99.90
45066;DHT22;30830;53.704;10.004;2024-01-15T00:55:48;0.80;99.90
45066;DHT22;30830;53.704;10.004;2024-01-15T00:58:14;0.90;99.90
45066;DHT22;30830;53.704;10.004;2024-01-15T01:00:39;0.80;99.90
45066;DHT22;30830;53.704;10.004;2024-01-15T01:03:06;0.90;99.90
45066;DHT22;30830;53.704;10.004;2024-01-15T01:05:33;0.90;99.90
45066;DHT22;30830;53.704;10.004;2024-01-15T01:07:58;0.90;99.90
45066;DHT22;30830;53.704;10.004;2024-01-15T01:10:24;0.90;99.90
45066;DHT22;30830;53.704;10.004;2024-01-15T01:12:49;0.90;99.90
45066;DHT22;30830;53.704;10.004;2024-01-15T01:15:15;0.90;99.90
45066;DHT22;30830;53.704;10.004;2024-01-15T01:17:40;0.90;99.90
45066;DHT22;30830;53.704;10.004;2024-01-15T01:20:06;0.90;99.90
45066;DHT22;30830;53.704;10.004;2024-01-15T01:22:34;0.90;99.90
45066;DHT22;30830;53.704;10.004;2024-01-15T01:25:00;0.90;99.90
45066;DHT22;30830;53.704;10.004;2024-01-15T01:27:25;0.80;99.90
45066;DHT22;30830;53.704;10.004;2024-01-15T01:29:51;0.80;99.90
45066;DHT22;30830;53.704;10.004;2024-01-15T01:32:17;0.80;99.90
45066;DHT22;30830;53.704;10.004;2024-01-15T01:34:43;0.80;99.90
45066;DHT22;30830;53.704;10.004;2024-01-15T01:37:09;0.80;99.90
45066;DHT22;30830;53.704;10.004;2024-01-15T01:39:35;0.80;99.90
45066;DHT22;30830;53.704;10.004;2024-01-15T01:42:00;0.70;99.90
45066;DHT22;30830;53.704;10.004;2024-01-15T01:44:26;0.80;99.90
45066;DHT22;30830;53.704;10.004;2024-01-15T01:46:52;0.80;99.90
45066;DHT22;30830;53.704;10.004;2024-01-15T01:49:18;0.80;99.90
45066;DHT22;30830;53.704;10.004;2024-01-15T01:51:44;0.80;99.90
45066;DHT22;30830;53.704;10.004;2024-01-15T01:54:10;0.80;99.90
45066;DHT22;30830;53.704;10.004;2024-01-15T01:56:39;0.80;99.90
45066;DHT22;30830;53.704;10.004;2024-01-15T01:59:06;0.80;99.90
45066;DHT22;30830;53.704;10.004;2024-01-15T02:01:33;0.90;99.90
45066;DHT22;30830;53.704;10.004;2024-01-15T02:04:00;0.90;99.90
45066;DHT22;30830;53.704;10.004;2024-01-15T02:06:25;0.90;99.90
45066;DHT22;30830;53.704;10.004;2024-01-15T02:08:51;0.90;99.90
45066;DHT22;30830;53.704;10.004;2024-01-15T02:11:17;0.90;99.90
45066;DHT22;30830;53.704;10.004;2024-01-15T02:13:42;1.00;99.90
45066;DHT22;30830;53.704;10.004;2024-01-15T02:16:08;1.00;99.90
45066;DHT22;30830;53.704;10.004;2024-01-15T02:18:43;1.00;99.90
45066;DHT22;30830;53.704;10.004;2024-01-15T02:21:10;1.00;99.90
45066;DHT22;30830;53.704;10.004;2024-01-15T02:23:36;1.10;99.90
45066;DHT22;30830;53.704;10.004;2024-01-15T02:26:03;1.10;99.90
45066;DHT22;30830;53.704;10.004;2024-01-15T02:28:29;1.10;99.90
45066;DHT22;30830;53.704;10.004;2024-01-15T02:30:55;1.10;99.90
45066;DHT22;30830;53.704;10.004;2024-01-15T02:33:21;1.10;99.90
45066;DHT22;30830;53.704;10.004;2024-01-15T02:35:46;1.10;99.90
45066;DHT22;30830;53.704;10.004;2024-01-15T02:38:12;1.00;99.90
45066;DHT22;30830;53.704;10.004;2024-01-15T02:40:38;1.00;99.90
45066;DHT22;30830;53.704;10.004;2024-01-15T02:43:04;1.00;99.90
45066;DHT22;30830;53.704;10.004;2024-01-15T02:45:29;1.00;99.90
45066;DHT22;30830;53.704;10.004;2024-01-15T02:47:55;1.00;99.90
45066;DHT22;30830;53.704;10.004;2024-01-15T02:50:21;1.10;99.90
45066;DHT22;30830;53.704;10.004;2024-01-15T02:52:46;1.10;99.90
45066;DHT22;30830;53.704;10.004;2024-01-15T02:55:12;1.10;99.90
45066;DHT22;30830;53.704;10.004;2024-01-15T02:57:38;1.10;99.90
45066;DHT22;30830;53.704;10.004;2024-01-15T03:00:03;1.10;99.90
45066;DHT22;30830;53.704;10.004;2024-01-15T03:02:29;1.10;99.90
45066;DHT22;30830;53.704;10.004;2024-01-15T03:04:57;1.10;99.90
45066;DHT22;30830;53.704;10.004;2024-01-15T03:07:22;1.10;99.90
45066;DHT22;30830;53.704;10.004;2024-01-15T03:09:48;1.10;99.90
45066;DHT22;30830;53.704;10.004;2024-01-15T03:12:13;1.10;99.90
45066;DHT22;30830;53.704;10.004;2024-01-15T03:14:39;1.00;99.90
45066;DHT22;30830;53.704;10.004;2024-01-15T03:17:05;1.00;99.90
45066;DHT22;30830;53.704;10.004;2024-01-15T03:19:30;1.00;99.90
45066;DHT22;30830;53.704;10.004;2024-01-15T03:21:56;1.00;99.90
45066;DHT22;30830;53.704;10.004;2024-01-15T03:24:22;0.90;99.90
45066;DHT22;30830;53.704;10.004;2024-01-15T03:26:47;0.90;99.90
45066;DHT22;30830;53.704;10.004;2024-01-15T03:29:13;0.90;99.90
45066;DHT22;30830;53.704;10.004;2024-01-15T03:31:39;0.90;99.90
45066;DHT22;30830;53.704;10.004;2024-01-15T03:34:04;0.90;99.90
45066;DHT22;30830;53.704;10.004;2024-01-15T03:36:30;1.00;99.90
45066;DHT22;30830;53.704;10.004;2024-01-15T03:38:55;0.90;99.90
45066;DHT22;30830;53.704;10.004;2024-01-15T03:41:21;0.90;99.90
45066;DHT22;30830;53.704;10.004;2024-01-15T03:43:46;1.00;99.90
45066;DHT22;30830;53.704;10.004;2024-01-15T03:46:12;0.90;99.90
45066;DHT22;30830;53.704;10.004;2024-01-15T03:48:38;1.00;99.90
45066;DHT22;30830;53.704;10.004;2024-01-15T03:51:04;1.00;99.90
45066;DHT22;30830;53.704;10.004;2024-01-15T03:53:29;1.00;99.90
45066;DHT22;30830;53.704;10.004;2024-01-15T03:55:55;1.00;99.90
45066;DHT22;30830;53.704;10.004;2024-01-15T03:58:20;1.00;99.90
45066;DHT22;30830;53.704;10.004;2024-01-15T04:00:46;1.00;99.90
45066;DHT22;30830;53.704;10.004;2024-01-15T04:03:11;1.10;99.90
45066;DHT22;30830;53.704;10.004;2024-01-15T04:05:38;1.10;99.90
45066;DHT22;30830;53.704;10.004;2024-01-15T04:08:04;1.10;99.90
45066;DHT22;30830;53.704;10.004;2024-01-15T04:10:30;1.10;99.90
45066;DHT22;30830;53.704;10.004;2024-01-15T04:12:56;1.10;99.90
45066;DHT22;30830;53.704;10.004;2024-01-15T04:15:22;1.10;99.90
45066;DHT22;30830;53.704;10.004;2024-01-15T04:17:47;1.10;99.90
45066;DHT22;30830;53.704;10.004;2024-01-15T04:20:13;1.10;99.90
45066;DHT22;30830;53.704;10.004;2024-01-15T04:22:39;1.10;99.90
45066;DHT22;30830;53.704;10.004;2024-01-15T04:25:05;1.10;99.90
45066;DHT22;30830;53.704;10.004;2024-01-15T04:27:30;1.10;99.90
45066;DHT22;30830;53.704;10.004;2024-01-15T04:29:56;1.20;99.90
45066;DHT22;30830;53.704;10.004;2024-01-15T04:32:21;1.20;99.90
45066;DHT22;30830;53.704;10.004;2024-01-15T04:34:47;1.20;99.90
45066;DHT22;30830;53.704;10.004;2024-01-15T04:37:13;1.20;99.90
45066;DHT22;30830;53.704;10.004;2024-01-15T04:39:39;1.20;99.90
45066;DHT22;30830;53.704;10.004;2024-01-15T04:42:05;1.20;99.90
45066;DHT22;30830;53.704;10.004;2024-01-15T04:44:30;1.20;99.90
45066;DHT22;30830;53.704;10.004;2024-01-15T04:46:56;1.20;99.90
45066;DHT22;30830;53.704;10.004;2024-01-15T04:49:22;1.20;99.90
45066;DHT22;30830;53.704;10.004;2024-01-15T04:51:47;1.20;99.90
45066;DHT22;30830;53.704;10.004;2024-01-15T04:54:13;1.20;99.90
45066;DHT22;30830;53.704;10.004;2024-01-15T04:56:43;1.20;99.90
45066;DHT22;30830;53.704;10.004;2024-01-15T04:59:08;1.20;99.90
45066;DHT22;30830;53.704;10.004;2024-01-15T05:01:34;1.20;99.90
45066;DHT22;30830;53.704;10.004;2024-01-15T05:04:00;1.20;99.90
45066;DHT22;30830;53.704;10.004;2024-01-15T05:06:25;1.20;99.90
45066;DHT22;30830;53.704;10.004;2024-01-15T05:08:51;1.20;99.90
45066;DHT22;30830;53.704;10.004;2024-01-15T05:11:16;1.20;99.90
45066;DHT22;30830;53.704;10.004;2024-01-15T05:13:42;1.20;99.90
45066;DHT22;30830;53.704;10.004;2024-01-15T05:16:08;1.20;99.90
45066;DHT22;30830;53.704;10.004;2024-01-15T05:18:33;1.20;99.90
45066;DHT22;30830;53.704;10.004;2024-01-15T05:20:59;1.20;99.90
45066;DHT22;30830;53.704;10.004;2024-01-15T05:23:25;1.20;99.90
45066;DHT22;30830;53.704;10.004;2024-01-15T05:25:50;1.20;99.90
45066;DHT22;30830;53.704;10.004;2024-01-15T05:28:16;1.20;99.90
45066;DHT22;30830;53.704;10.004;2024-01-15T05:30:42;1.20;99.90
45066;DHT22;30830;53.704;10.004;2024-01-15T05:33:07;1.20;99.90
45066;DHT22;30830;53.704;10.004;2024-01-15T05:35:33;1.30;99.90
45066;DHT22;30830;53.704;10.004;2024-01-15T05:37:59;1.30;99.90
45066;DHT22;30830;53.704;10.004;2024-01-15T05:40:25;1.40;99.90
45066;DHT22;30830;53.704;10.004;2024-01-15T05:42:51;1.30;99.90
45066;DHT22;30830;53.704;10.004;2024-01-15T05:45:17;1.40;99.90
45066;DHT22;30830;53.704;10.004;2024-01-15T05:47:42;1.30;99.90
45066;DHT22;30830;53.704;10.004;2024-01-15T05:50:09;1.40;99.90
45066;DHT22;30830;53.704;10.004;2024-01-15T05:52:35;1.40;99.90
45066;DHT22;30830;53.704;10.004;2024-01-15T05:55:00;1.40;99.90
45066;DHT22;30830;53.704;10.004;2024-01-15T05:57:26;1.40;99.90
45066;DHT22;30830;53.704;10.004;2024-01-15T05:59:51;1.40;99.90
45066;DHT22;30830;53.704;10.004;2024-01-15T06:02:19;1.40;99.90
45066;DHT22;30830;53.704;10.004;2024-01-15T06:04:44;1.40;99.90
45066;DHT22;30830;53.704;10.004;2024-01-15T06:07:10;1.40;99.90
45066;DHT22;30830;53.704;10.004;2024-01-15T06:09:35;1.40;99.90
45066;DHT22;30830;53.704;10.004;2024-01-15T06:12:01;1.30;99.90
45066;DHT22;30830;53.704;10.004;2024-01-15T06:14:27;1.30;99.90
45066;DHT22;30830;53.704;10.004;2024-01-15T06:16:52;1.30;99.90
45066;DHT22;30830;53.704;10.004;2024-01-15T06:19:18;1.20;99.90
45066;DHT22;30830;53.704;10.004;2024-01-15T06:21:43;1.20;99.90
45066;DHT22;30830;53.704;10.004;2024-01-15T06:24:09;1.20;99.90
45066;DHT22;30830;53.704;10.004;2024-01-15T06:26:35;1.20;99.90
45066;DHT22;30830;53.704;10.004;2024-01-15T06:29:01;1.20;99.90
45066;DHT22;30830;53.704;10.004;2024-01-15T06:31:28;1.20;99.90
45066;DHT22;30830;53.704;10.004;2024-01-15T06:33:55;1.20;99.90
45066;DHT22;30830;53.704;10.004;2024-01-15T06:36:20;1.20;99.90
45066;DHT22;30830;53.704;10.004;2024-01-15T06:38:46;1.20;99.90
45066;DHT22;30830;53.704;10.004;2024-01-15T06:41:11;1.20;99.90
45066;DHT22;30830;53.704;10.004;2024-01-15T06:43:37;1.10;99.90
45066;DHT22;30830;53.704;10.004;2024-01-15T06:46:02;1.20;99.90
45066;DHT22;30830;53.704;10.004;2024-01-15T06:48:28;1.20;99.90
45066;DHT22;30830;53.704;10.004;2024-01-15T06:50:53;1.20;99.90
45066;DHT22;30830;53.704;10.004;2024-01-15T06:53:19;1.20;99.90
45066;DHT22;30830;53.704;10.004;2024-01-15T06:55:45;1.20;99.90
45066;DHT22;30830;53.704;10.004;2024-01-15T06:58:10;1.20;99.90
45066;DHT22;30830;53.704;10.004;2024-01-15T07:00:36;1.30;99.90
45066;DHT22;30830;53.704;10.004;2024-01-15T07:03:01;1.20;99.90
45066;DHT22;30830;53.704;10.004;2024-01-15T07:05:27;1.20;99.90
45066;DHT22;30830;53.704;10.004;2024-01-15T07:07:55;1.20;99.90
45066;DHT22;30830;53.704;10.004;2024-01-15T07:10:21;1.10;99.90
45066;DHT22;30830;53.704;10.004;2024-01-15T07:12:46;1.20;99.90
45066;DHT22;30830;53.704;10.004;2024-01-15T07:15:12;1.20;99.90
45066;DHT22;30830;53.704;10.004;2024-01-15T07:17:38;1.20;99.90
45066;DHT22;30830;53.704;10.004;2024-01-15T07:20:06;1.10;99.90
45066;DHT22;30830;53.704;10.004;2024-01-15T07:22:33;1.20;99.90
45066;DHT22;30830;53.704;10.004;2024-01-15T07:24:59;1.20;99.90
45066;DHT22;30830;53.704;10.004;2024-01-15T07:27:25;1.20;99.90
45066;DHT22;30830;53.704;10.004;2024-01-15T07:29:50;1.20;99.90
45066;DHT22;30830;53.704;10.004;2024-01-15T07:32:16;1.20;99.90
45066;DHT22;30830;53.704;10.004;2024-01-15T07:34:41;1.20;99.90
45066;DHT22;30830;53.704;10.004;2024-01-15T07:37:07;1.20;99.90
45066;DHT22;30830;53.704;10.004;2024-01-15T07:39:33;1.20;99.90
45066;DHT22;30830;53.704;10.004;2024-01-15T07:42:00;1.20;99.90
45066;DHT22;30830;53.704;10.004;2024-01-15T07:44:26;1.20;99.90
45066;DHT22;30830;53.704;10.004;2024-01-15T07:46:51;1.20;99.90
45066;DHT22;30830;53.704;10.004;2024-01-15T07:49:17;1.20;99.90
45066;DHT22;30830;53.704;10.004;2024-01-15T07:51:43;1.20;99.90
45066;DHT22;30830;53.704;10.004;2024-01-15T07:54:11;1.20;99.90
45066;DHT22;30830;53.704;10.004;2024-01-15T07:56:56;1.20;99.90
45066;DHT22;30830;53.704;10.004;2024-01-15T07:59:23;1.20;99.90
45066;DHT22;30830;53.704;10.004;2024-01-15T08:01:49;1.20;99.90
45066;DHT22;30830;53.704;10.004;2024-01-15T08:04:14;1.20;99.90
45066;DHT22;30830;53.704;10.004;2024-01-15T08:06:40;1.20;99.90
45066;DHT22;30830;53.704;10.004;2024-01-15T08:09:05;1.20;99.90
45066;DHT22;30830;53.704;10.004;2024-01-15T08:11:31;1.20;99.90
45066;DHT22;30830;53.704;10.004;2024-01-15T08:13:57;1.20;99.90
45066;DHT22;30830;53.704;10.004;2024-01-15T08:16:23;1.20;99.90
45066;DHT22;30830;53.704;10.004;2024-01-15T08:18:50;1.20;99.90
45066;DHT22;30830;53.704;10.004;2024-01-15T08:21:16;1.20;99.90
45066;DHT22;30830;53.704;10.004;2024-01-15T08:23:41;1.20;99.90
45066;DHT22;30830;53.704;10.004;2024-01-15T08:26:07;1.30;99.90
45066;DHT22;30830;53.704;10.004;2024-01-15T08:28:34;1.20;99.90
45066;DHT22;30830;53.704;10.004;2024-01-15T08:31:00;1.20;99.90
45066;DHT22;30830;53.704;10.004;2024-01-15T08:33:25;1.20;99.90
45066;DHT22;30830;53.704;10.004;2024-01-15T08:35:51;1.30;99.90
45066;DHT22;30830;53.704;10.004;2024-01-15T08:38:16;1.30;99.90
45066;DHT22;30830;53.704;10.004;2024-01-15T08:40:43;1.30;99.90
45066;DHT22;30830;53.704;10.004;2024-01-15T08:43:08;1.30;99.90
45066;DHT22;30830;53.704;10.004;2024-01-15T08:45:34;1.40;99.90
45066;DHT22;30830;53.704;10.004;2024-01-15T08:47:59;1.40;99.90
45066;DHT22;30830;53.704;10.004;2024-01-15T08:50:26;1.50;99.90
45066;DHT22;30830;53.704;10.004;2024-01-15T08:52:52;1.40;99.90
45066;DHT22;30830;53.704;10.004;2024-01-15T08:55:17;1.40;99.90
45066;DHT22;30830;53.704;10.004;2024-01-15T08:57:43;1.40;99.90
45066;DHT22;30830;53.704;10.004;2024-01-15T09:00:09;1.40;99.90
45066;DHT22;30830;53.704;10.004;2024-01-15T09:02:35;1.40;99.90
45066;DHT22;30830;53.704;10.004;2024-01-15T09:05:01;1.40;99.90
45066;DHT22;30830;53.704;10.004;2024-01-15T09:07:27;1.30;99.90
45066;DHT22;30830;53.704;10.004;2024-01-15T09:09:53;1.30;99.90
45066;DHT22;30830;53.704;10.004;2024-01-15T09:12:19;1.30;99.90
45066;DHT22;30830;53.704;10.004;2024-01-15T09:14:46;1.20;99.90
45066;DHT22;30830;53.704;10.004;2024-01-15T09:17:12;1.20;99.90
45066;DHT22;30830;53.704;10.004;2024-01-15T09:19:37;1.30;99.90
45066;DHT22;30830;53.704;10.004;2024-01-15T09:22:05;1.30;99.90
45066;DHT22;30830;53.704;10.004;2024-01-15T09:24:30;1.20;99.90
45066;DHT22;30830;53.704;10.004;2024-01-15T09:26:56;1.20;99.90
45066;DHT22;30830;53.704;10.004;2024-01-15T09:29:22;1.20;99.90
45066;DHT22;30830;53.704;10.004;2024-01-15T09:31:49;1.20;99.90
45066;DHT22;30830;53.704;10.004;2024-01-15T09:34:15;1.20;99.90
45066;DHT22;30830;53.704;10.004;2024-01-15T09:36:41;1.20;99.90
45066;DHT22;30830;53.704;10.004;2024-01-15T09:39:08;1.20;99.90
45066;DHT22;30830;53.704;10.004;2024-01-15T09:41:37;1.20;99.90
45066;DHT22;30830;53.704;10.004;2024-01-15T09:44:03;1.20;99.90
45066;DHT22;30830;53.704;10.004;2024-01-15T09:46:31;1.20;99.90
45066;DHT22;30830;53.704;10.004;2024-01-15T09:48:57;1.20;99.90
45066;DHT22;30830;53.704;10.004;2024-01-15T09:51:24;1.20;99.90
45066;DHT22;30830;53.704;10.004;2024-01-15T09:53:50;1.20;99.90
45066;DHT22;30830;53.704;10.004;2024-01-15T09:56:16;1.20;99.90
45066;DHT22;30830;53.704;10.004;2024-01-15T09:58:42;1.10;99.90
45066;DHT22;30830;53.704;10.004;2024-01-15T10:01:08;1.10;99.90
45066;DHT22;30830;53.704;10.004;2024-01-15T10:03:34;1.10;99.90
45066;DHT22;30830;53.704;10.004;2024-01-15T10:06:00;1.00;99.90
45066;DHT22;30830;53.704;10.004;2024-01-15T10:08:28;1.00;99.90
45066;DHT22;30830;53.704;10.004;2024-01-15T10:10:53;1.00;99.90
45066;DHT22;30830;53.704;10.004;2024-01-15T10:13:19;1.00;99.90
45066;DHT22;30830;53.704;10.004;2024-01-15T10:15:46;1.10;99.90
45066;DHT22;30830;53.704;10.004;2024-01-15T10:18:15;1.10;99.90
45066;DHT22;30830;53.704;10.004;2024-01-15T10:20:40;1.10;99.90
45066;DHT22;30830;53.704;10.004;2024-01-15T10:23:06;1.10;99.90
45066;DHT22;30830;53.704;10.004;2024-01-15T10:25:32;1.20;99.90
45066;DHT22;30830;53.704;10.004;2024-01-15T10:28:02;1.20;99.90
45066;DHT22;30830;53.704;10.004;2024-01-15T10:30:27;1.20;99.90
45066;DHT22;30830;53.704;10.004;2024-01-15T10:33:01;1.20;99.90
45066;DHT22;30830;53.704;10.004;2024-01-15T10:35:28;1.20;99.90
45066;DHT22;30830;53.704;10.004;2024-01-15T10:37:54;1.20;99.90
45066;DHT22;30830;53.704;10.004;2024-01-15T10:40:20;1.20;99.90
45066;DHT22;30830;53.704;10.004;2024-01-15T10:42:45;1.20;99.90
45066;DHT22;30830;53.704;10.004;2024-01-15T10:45:15;1.20;99.90
45066;DHT22;30830;53.704;10.004;2024-01-15T10:47:42;1.20;99.90
45066;DHT22;30830;53.704;10.004;2024-01-15T10:50:09;1.20;99.90
45066;DHT22;30830;53.704;10.004;2024-01-15T10:52:39;1.20;99.90
45066;DHT22;30830;53.704;10.004;2024-01-15T10:55:11;1.20;99.90
45066;DHT22;30830;53.704;10.004;2024-01-15T10:57:37;1.20;99.90
45066;DHT22;30830;53.704;10.004;2024-01-15T11:00:07;1.30;99.90
45066;DHT22;30830;53.704;10.004;2024-01-15T11:02:36;1.20;99.90
45066;DHT22;30830;53.704;10.004;2024-01-15T11:05:02;1.30;99.90
45066;DHT22;30830;53.704;10.004;2024-01-15T11:07:30;1.30;99.90
45066;DHT22;30830;53.704;10.004;2024-01-15T11:09:55;1.30;99.90
45066;DHT22;30830;53.704;10.004;2024-01-15T11:12:23;1.40;99.90
45066;DHT22;30830;53.704;10.004;2024-01-15T11:14:49;1.40;99.90
45066;DHT22;30830;53.704;10.004;2024-01-15T11:17:16;1.40;99.90
45066;DHT22;30830;53.704;10.004;2024-01-15T11:24:54;1.50;99.90
45066;DHT22;30830;53.704;10.004;2024-01-15T11:27:47;1.50;99.90
45066;DHT22;30830;53.704;10.004;2024-01-15T11:30:13;1.60;99.90
45066;DHT22;30830;53.704;10.004;2024-01-15T11:32:40;1.60;99.90
45066;DHT22;30830;53.704;10.004;2024-01-15T11:35:12;1.60;99.90
45066;DHT22;30830;53.704;10.004;2024-01-15T11:43:05;1.50;99.90
45066;DHT22;30830;53.704;10.004;2024-01-15T11:45:32;1.40;99.90
45066;DHT22;30830;53.704;10.004;2024-01-15T11:48:15;1.40;99.90
45066;DHT22;30830;53.704;10.004;2024-01-15T11:50:42;1.30;99.90
45066;DHT22;30830;53.704;10.004;2024-01-15T11:55:47;1.30;99.90
45066;DHT22;30830;53.704;10.004;2024-01-15T11:58:14;1.40;99.90
45066;DHT22;30830;53.704;10.004;2024-01-15T12:00:41;1.30;99.90
45066;DHT22;30830;53.704;10.004;2024-01-15T12:03:08;1.30;99.90
45066;DHT22;30830;53.704;10.004;2024-01-15T12:05:37;1.30;99.90
45066;DHT22;30830;53.704;10.004;2024-01-15T12:08:03;1.30;99.90
45066;DHT22;30830;53.704;10.004;2024-01-15T12:10:28;1.40;99.90
45066;DHT22;30830;53.704;10.004;2024-01-15T12:13:05;1.40;99.90
45066;DHT22;30830;53.704;10.004;2024-01-15T12:15:54;1.40;99.90
45066;DHT22;30830;53.704;10.004;2024-01-15T12:18:19;1.40;99.90
45066;DHT22;30830;53.704;10.004;2024-01-15T12:20:45;1.40;99.90
45066;DHT22;30830;53.704;10.004;2024-01-15T12:23:14;1.40;99.90
45066;DHT22;30830;53.704;10.004;2024-01-15T12:25:41;1.40;99.90
45066;DHT22;30830;53.704;10.004;2024-01-15T12:28:07;1.40;99.90
45066;DHT22;30830;53.704;10.004;2024-01-15T12:30:34;1.30;99.90
45066;DHT22;30830;53.704;10.004;2024-01-15T12:33:04;1.30;99.90
45066;DHT22;30830;53.704;10.004;2024-01-15T12:35:38;1.30;99.90
45066;DHT22;30830;53.704;10.004;2024-01-15T12:38:04;1.30;99.90
45066;DHT22;30830;53.704;10.004;2024-01-15T12:40:31;1.20;99.90
45066;DHT22;30830;53.704;10.004;2024-01-15T12:42:57;1.20;99.90
45066;DHT22;30830;53.704;10.004;2024-01-15T12:45:24;1.20;99.90
45066;DHT22;30830;53.704;10.004;2024-01-15T12:47:49;1.20;99.90
45066;DHT22;30830;53.704;10.004;2024-01-15T12:50:16;1.10;99.90
45066;DHT22;30830;53.704;10.004;2024-01-15T12:52:42;1.20;99.90
45066;DHT22;30830;53.704;10.004;2024-01-15T12:55:09;1.20;99.90
45066;DHT22;30830;53.704;10.004;2024-01-15T12:57:35;1.20;99.90
45066;DHT22;30830;53.704;10.004;2024-01-15T13:00:02;1.30;99.90
45066;DHT22;30830;53.704;10.004;2024-01-15T13:02:33;1.20;99.90
45066;DHT22;30830;53.704;10.004;2024-01-15T13:04:59;1.20;99.90
45066;DHT22;30830;53.704;10.004;2024-01-15T13:07:25;1.30;99.90
45066;DHT22;30830;53.704;10.004;2024-01-15T13:09:51;1.20;99.90
45066;DHT22;30830;53.704;10.004;2024-01-15T13:12:19;1.30;99.90
45066;DHT22;30830;53.704;10.004;2024-01-15T13:14:45;1.20;99.90
45066;DHT22;30830;53.704;10.004;2024-01-15T13:17:11;1.20;99.90
45066;DHT22;30830;53.704;10.004;2024-01-15T13:19:42;1.20;99.90
45066;DHT22;30830;53.704;10.004;2024-01-15T13:22:07;1.20;99.90
45066;DHT22;30830;53.704;10.004;2024-01-15T13:24:35;1.10;99.90
45066;DHT22;30830;53.704;10.004;2024-01-15T13:27:11;1.10;99.90
45066;DHT22;30830;53.704;10.004;2024-01-15T13:29:38;1.10;99.90
45066;DHT22;30830;53.704;10.004;2024-01-15T13:32:04;1.10;99.90
45066;DHT22;30830;53.704;10.004;2024-01-15T13:34:30;1.10;99.90
45066;DHT22;30830;53.704;10.004;2024-01-15T13:36:56;1.00;99.90
45066;DHT22;30830;53.704;10.004;2024-01-15T13:39:22;1.00;99.90
45066;DHT22;30830;53.704;10.004;2024-01-15T13:41:48;1.10;99.90
45066;DHT22;30830;53.704;10.004;2024-01-15T13:44:14;1.10;99.90
45066;DHT22;30830;53.704;10.004;2024-01-15T13:47:00;1.10;99.90
45066;DHT22;30830;53.704;10.004;2024-01-15T13:49:31;1.10;99.90
45066;DHT22;30830;53.704;10.004;2024-01-15T13:51:59;1.10;99.90
45066;DHT22;30830;53.704;10.004;2024-01-15T13:54:24;1.10;99.90
45066;DHT22;30830;53.704;10.004;2024-01-15T13:56:50;1.10;99.90
45066;DHT22;30830;53.704;10.004;2024-01-15T13:59:18;1.10;99.90
45066;DHT22;30830;53.704;10.004;2024-01-15T14:01:43;1.10;99.90
45066;DHT22;30830;53.704;10.004;2024-01-15T14:04:09;1.10;99.90
45066;DHT22;30830;53.704;10.004;2024-01-15T14:06:35;1.10;99.90
45066;DHT22;30830;53.704;10.004;2024-01-15T14:09:11;0.90;99.90
45066;DHT22;30830;53.704;10.004;2024-01-15T14:11:39;0.90;99.90
45066;DHT22;30830;53.704;10.004;2024-01-15T14:14:05;0.90;99.90
45066;DHT22;30830;53.704;10.004;2024-01-15T14:16:33;0.80;99.90
45066;DHT22;30830;53.704;10.004;2024-01-15T14:18:58;0.80;99.90
45066;DHT22;30830;53.704;10.004;2024-01-15T14:21:24;0.80;99.90
45066;DHT22;30830;53.704;10.004;2024-01-15T14:23:50;0.70;99.90
45066;DHT22;30830;53.704;10.004;2024-01-15T14:26:15;0.70;99.90
45066;DHT22;30830;53.704;10.004;2024-01-15T14:28:41;0.70;99.90
45066;DHT22;30830;53.704;10.004;2024-01-15T14:31:11;0.70;99.90
45066;DHT22;30830;53.704;10.004;2024-01-15T14:33:37;0.60;99.90
45066;DHT22;30830;53.704;10.004;2024-01-15T14:36:14;0.60;99.90
45066;DHT22;30830;53.704;10.004;2024-01-15T14:38:41;0.50;99.90
45066;DHT22;30830;53.704;10.004;2024-01-15T14:41:06;0.50;99.90
45066;DHT22;30830;53.704;10.004;2024-01-15T14:43:32;0.50;99.90
45066;DHT22;30830;53.704;10.004;2024-01-15T14:46:00;0.50;99.90
45066;DHT22;30830;53.704;10.004;2024-01-15T14:48:26;0.40;99.90
45066;DHT22;30830;53.704;10.004;2024-01-15T14:50:51;0.30;99.90
45066;DHT22;30830;53.704;10.004;2024-01-15T14:53:17;0.30;99.90
45066;DHT22;30830;53.704;10.004;2024-01-15T14:55:43;0.30;99.90
45066;DHT22;30830;53.704;10.004;2024-01-15T14:58:08;0.20;99.90
45066;DHT22;30830;53.704;10.004;2024-01-15T15:00:34;0.20;99.90
45066;DHT22;30830;53.704;10.004;2024-01-15T15:03:00;0.10;99.90
45066;DHT22;30830;53.704;10.004;2024-01-15T15:05:26;0.10;99.90
45066;DHT22;30830;53.704;10.004;2024-01-15T15:07:51;0.10;99.90
45066;DHT22;30830;53.704;10.004;2024-01-15T15:10:43;0.10;99.90
45066;DHT22;30830;53.704;10.004;2024-01-15T15:13:09;0.10;99.90
45066;DHT22;30830;53.704;10.004;2024-01-15T15:15:35;0.00;99.90
45066;DHT22;30830;53.704;10.004;2024-01-15T15:18:13;0.00;99.90
45066;DHT22;30830;53.704;10.004;2024-01-15T15:20:39;-0.10;99.90
45066;DHT22;30830;53.704;10.004;2024-01-15T15:23:04;-0.20;99.90
45066;DHT22;30830;53.704;10.004;2024-01-15T15:25:53;-0.20;99.90
45066;DHT22;30830;53.704;10.004;2024-01-15T15:28:19;-0.30;99.90
45066;DHT22;30830;53.704;10.004;2024-01-15T15:30:44;-0.30;99.90
45066;DHT22;30830;53.704;10.004;2024-01-15T15:33:13;-0.30;99.90
45066;DHT22;30830;53.704;10.004;2024-01-15T15:35:46;-0.40;99.90
45066;DHT22;30830;53.704;10.004;2024-01-15T15:38:11;-0.40;99.90
45066;DHT22;30830;53.704;10.004;2024-01-15T15:40:48;-0.50;99.90